KPDT/PDT METAR and TAF weather

Enter ICAO airport designator
Station Type Date Time Source
KPDT METAR 2023/02/05 19:53 UTC NOAA

KPDT 051953Z 24010KT 4SM -RA BR BKN019 OVC025 06/04 A2986 RMK AO2 SLP111 P0007 T00560039


Station Type Date Time Source
KPDT Decoded METAR 2023/02/05 19:53 UTC NOAA

PENDLETON MUNICIPAL AIRPORT, OR, United States (KPDT) 45-70N 118-83W 458M
Feb 05, 2023 - 02:53 PM EST / 2023.02.05 1953 UTC
Wind: from the WSW (240 degrees) at 12 MPH (10 KT):0
Visibility: 4 mile(s):0
Sky conditions: overcast
Weather: light rain; mist
Precipitation last hour: 0.07 inches
Temperature: 42.1 F (5.6 C)
Dew Point: 39.0 F (3.9 C)
Relative Humidity: 88%
Pressure (altimeter): 29.86 in. Hg (1011 hPa)
ob: KPDT 051953Z 24010KT 4SM -RA BR BKN019 OVC025 06/04 A2986 RMK AO2 SLP111 P0007 T00560039
cycle: 20

Station Type Date Time Source
KPDT TAF 2023/02/05 18:27 UTC NOAA

TAF KPDT 051725Z 0518/0618 26012G20KT 6SM -RA OVC040
FM052300 25013G21KT 6SM -RA BKN035 OVC050
FM060400 25023G35KT P6SM VCSH BKN040 OVC060
FM060900 26014G23KT P6SM BKN050

Example: see airport list